createdAt,value
2022-08-22T00:01:35.927Z,48.38
2022-08-22T00:02:42.423Z,36.28
2022-08-22T00:02:44.326Z,42.68
2022-08-22T00:02:54.108Z,40.38
2022-08-22T00:04:24.324Z,46.92
2022-08-22T00:07:19.750Z,46.62
2022-08-22T00:10:20.318Z,49.17
2022-08-22T00:13:07.861Z,48.32
2022-08-22T00:15:47.457Z,48.21
2022-08-22T00:18:38.124Z,47.64
2022-08-22T00:21:16.769Z,47.29
2022-08-22T00:23:53.688Z,47.58
2022-08-22T00:26:43.309Z,47.97
2022-08-22T00:29:24.406Z,49.02
2022-08-22T00:32:06.718Z,49.20
2022-08-22T00:34:44.724Z,49.02
2022-08-22T00:37:32.383Z,48.25
2022-08-22T00:40:43.466Z,48.41
2022-08-22T00:43:09.955Z,48.48
2022-08-22T00:46:30.192Z,48.77
2022-08-22T00:49:35.690Z,48.46
2022-08-22T00:52:28.047Z,48.65
2022-08-22T00:55:09.624Z,48.62
2022-08-22T00:58:06.560Z,48.53
2022-08-22T01:00:56.062Z,48.89
2022-08-22T01:03:43.845Z,48.89
2022-08-22T01:07:23.749Z,49.41
2022-08-22T01:10:58.576Z,49.69
2022-08-22T01:14:34.827Z,49.40
2022-08-22T01:17:54.709Z,49.18
2022-08-22T01:20:39.885Z,49.04
2022-08-22T01:23:15.407Z,48.73
2022-08-22T01:26:11.885Z,49.42
2022-08-22T01:29:00.334Z,49.78
2022-08-22T01:31:59.919Z,49.88
2022-08-22T01:34:54.252Z,49.55
2022-08-22T01:37:33.041Z,49.05
2022-08-22T01:40:37.619Z,49.17
2022-08-22T01:44:37.935Z,49.24
2022-08-22T01:47:25.289Z,49.67
2022-08-22T01:50:02.567Z,49.57
2022-08-22T01:52:41.105Z,49.76
2022-08-22T01:55:34.150Z,49.45
2022-08-22T01:58:24.619Z,49.52
2022-08-22T02:01:06.643Z,49.32
2022-08-22T02:03:58.068Z,49.13
2022-08-22T02:06:45.867Z,49.48
2022-08-22T02:09:53.868Z,49.19
2022-08-22T02:12:37.395Z,49.09
2022-08-22T02:15:51.219Z,49.25
2022-08-22T02:18:27.983Z,49.09
2022-08-22T02:21:11.983Z,49.37
2022-08-22T02:23:55.953Z,49.15
2022-08-22T02:26:44.718Z,49.43
2022-08-22T02:29:18.887Z,49.87
2022-08-22T02:32:19.327Z,50.08
2022-08-22T02:35:13.268Z,49.91
2022-08-22T02:38:38.950Z,49.59
2022-08-22T02:41:48.704Z,49.17
2022-08-22T02:44:36.375Z,49.35
2022-08-22T02:47:10.651Z,49.31
2022-08-22T02:50:03.268Z,49.05
2022-08-22T02:53:07.180Z,48.89
2022-08-22T02:55:52.397Z,49.07
2022-08-22T02:58:40.861Z,49.28
2022-08-22T03:01:25.243Z,49.02
2022-08-22T03:04:12.945Z,49.02
2022-08-22T03:07:00.035Z,49.09
2022-08-22T03:09:36.696Z,49.00
2022-08-22T03:12:34.197Z,48.91
2022-08-22T03:15:06.802Z,49.04
2022-08-22T03:17:48.284Z,48.77
2022-08-22T03:20:42.708Z,48.71
2022-08-22T03:23:33.361Z,48.95
2022-08-22T03:26:30.706Z,48.45
2022-08-22T03:29:09.666Z,48.83
2022-08-22T03:31:36.663Z,49.10
2022-08-22T03:34:25.006Z,48.68
2022-08-22T03:37:17.810Z,49.05
2022-08-22T03:40:01.145Z,50.96
2022-08-22T03:42:49.084Z,49.64
2022-08-22T03:45:59.808Z,49.44
2022-08-22T03:48:45.584Z,49.32
2022-08-22T03:51:38.537Z,49.07
2022-08-22T03:54:20.943Z,48.83
2022-08-22T03:57:09.133Z,48.77
2022-08-22T04:00:06.963Z,52.96
2022-08-22T04:03:21.205Z,55.02
2022-08-22T04:06:12.642Z,52.33
2022-08-22T04:09:17.042Z,50.21
2022-08-22T04:12:14.511Z,50.78
2022-08-22T04:14:47.520Z,49.84
2022-08-22T04:17:29.030Z,50.26
2022-08-22T04:20:13.076Z,49.87
2022-08-22T04:23:41.045Z,49.53
2022-08-22T04:26:17.173Z,49.39
2022-08-22T04:28:58.545Z,49.23
2022-08-22T04:31:32.526Z,48.97
2022-08-22T04:34:18.224Z,50.50
2022-08-22T04:36:55.392Z,49.83
2022-08-22T04:39:45.556Z,50.00
2022-08-22T04:42:32.632Z,49.98
2022-08-22T04:45:13.307Z,49.53
2022-08-22T04:48:12.966Z,49.98
2022-08-22T04:50:55.014Z,49.88
2022-08-22T04:53:38.568Z,49.21
2022-08-22T04:56:22.348Z,49.47
2022-08-22T04:58:59.241Z,48.79
2022-08-22T05:01:37.378Z,48.95
2022-08-22T05:04:29.969Z,48.51
2022-08-22T05:07:10.455Z,48.72
2022-08-22T05:09:40.894Z,48.24
2022-08-22T05:12:14.465Z,47.86
2022-08-22T05:14:58.314Z,47.66
2022-08-22T05:17:29.315Z,47.37
2022-08-22T05:20:03.072Z,47.40
2022-08-22T05:22:36.883Z,47.46
2022-08-22T05:25:11.023Z,47.47
2022-08-22T05:27:49.296Z,48.09
2022-08-22T05:30:28.286Z,48.06
2022-08-22T05:33:15.039Z,47.97
2022-08-22T05:35:54.544Z,47.69
2022-08-22T05:38:31.481Z,48.03
2022-08-22T05:41:10.051Z,47.19
2022-08-22T05:43:44.004Z,48.25
2022-08-22T05:46:40.397Z,46.67
2022-08-22T05:49:30.689Z,46.05
2022-08-22T05:52:38.672Z,45.75
2022-08-22T05:55:28.091Z,45.15
2022-08-22T05:58:39.831Z,44.47
2022-08-22T06:01:42.320Z,43.79
2022-08-22T06:04:45.283Z,43.44
2022-08-22T06:07:33.830Z,42.85
2022-08-22T06:10:06.751Z,42.42
2022-08-22T06:12:43.698Z,41.80
2022-08-22T06:15:29.437Z,41.90
2022-08-22T06:18:26.454Z,40.93
2022-08-22T06:21:02.373Z,40.97
2022-08-22T06:23:47.120Z,40.15
2022-08-22T06:26:20.371Z,39.44
2022-08-22T06:28:55.367Z,38.60
2022-08-22T06:31:31.023Z,38.07
2022-08-22T06:34:08.127Z,38.22
2022-08-22T06:36:39.486Z,37.90
2022-08-22T06:39:24.089Z,37.52
2022-08-22T06:42:02.333Z,37.22
2022-08-22T06:44:38.355Z,36.95
2022-08-22T06:47:14.936Z,36.40
2022-08-22T06:49:45.675Z,36.28
2022-08-22T06:52:23.322Z,35.99
2022-08-22T06:55:00.337Z,35.38
2022-08-22T06:57:50.495Z,34.97
2022-08-22T07:00:18.849Z,35.12
2022-08-22T07:03:07.609Z,35.24
2022-08-22T07:05:41.543Z,35.32
2022-08-22T07:08:19.660Z,35.13
2022-08-22T07:11:13.748Z,34.19
2022-08-22T07:13:51.569Z,33.71
2022-08-22T07:16:31.535Z,34.77
2022-08-22T07:18:58.763Z,35.66
2022-08-22T07:21:43.603Z,34.09
2022-08-22T07:24:22.036Z,33.47
2022-08-22T07:27:28.211Z,32.67
2022-08-22T07:30:10.201Z,33.54
2022-08-22T07:32:43.347Z,32.72
2022-08-22T07:35:19.787Z,32.02
2022-08-22T07:38:21.393Z,32.20
2022-08-22T07:41:13.056Z,31.88
2022-08-22T07:43:51.662Z,30.86
2022-08-22T07:46:57.989Z,31.19
2022-08-22T07:49:35.943Z,31.29
2022-08-22T07:52:09.732Z,31.99
2022-08-22T07:54:52.839Z,30.37
2022-08-22T07:57:27.585Z,30.91
2022-08-22T07:59:58.132Z,30.59
2022-08-22T08:02:26.539Z,30.63
2022-08-22T08:04:57.235Z,30.08
2022-08-22T08:07:29.056Z,30.67
2022-08-22T08:10:04.992Z,30.77
2022-08-22T08:12:41.527Z,30.80
2022-08-22T08:15:17.147Z,31.13
2022-08-22T08:17:46.087Z,31.21
2022-08-22T08:20:17.531Z,31.12
2022-08-22T08:22:46.115Z,30.56
2022-08-22T08:25:21.528Z,30.22
2022-08-22T08:28:09.843Z,29.34
2022-08-22T08:30:52.964Z,29.28
2022-08-22T08:33:26.679Z,28.87
2022-08-22T08:36:32.951Z,28.97
2022-08-22T08:39:28.580Z,28.40
2022-08-22T08:42:09.306Z,27.79
2022-08-22T08:44:49.523Z,30.81
2022-08-22T08:47:16.129Z,31.32
2022-08-22T08:50:16.512Z,30.58
2022-08-22T08:56:38.264Z,30.21
2022-08-22T08:59:26.939Z,29.78
2022-08-22T09:02:34.822Z,30.06
2022-08-22T09:05:29.586Z,29.78
2022-08-22T09:08:21.140Z,30.05
2022-08-22T09:10:50.906Z,30.25
2022-08-22T09:13:53.143Z,28.84
2022-08-22T09:17:30.380Z,29.33
2022-08-22T09:20:30.899Z,27.91
2022-08-22T09:23:37.754Z,28.38
2022-08-22T09:26:08.586Z,28.92
2022-08-22T09:28:47.614Z,30.56
2022-08-22T09:31:32.906Z,30.82
2022-08-22T09:34:25.604Z,32.57
2022-08-22T09:37:20.417Z,31.28
2022-08-22T09:43:14.089Z,30.18
2022-08-22T09:45:58.532Z,29.52
2022-08-22T09:48:37.918Z,30.77
2022-08-22T09:51:41.062Z,32.52
2022-08-22T09:54:35.854Z,30.47
2022-08-22T09:57:38.775Z,28.98
2022-08-22T10:00:05.284Z,29.50
2022-08-22T10:02:43.845Z,28.64
2022-08-22T10:05:39.503Z,28.21
2022-08-22T10:08:28.782Z,26.75
2022-08-22T10:11:20.423Z,26.60
2022-08-22T10:14:00.814Z,27.48
2022-08-22T10:16:46.654Z,27.34
2022-08-22T10:19:38.149Z,28.86
2022-08-22T10:22:30.240Z,29.00
2022-08-22T10:25:45.711Z,30.40
2022-08-22T10:28:33.532Z,32.31
2022-08-22T10:31:15.227Z,31.45
2022-08-22T10:34:13.272Z,31.39
2022-08-22T10:37:23.862Z,29.19
2022-08-22T10:40:38.925Z,29.22
2022-08-22T10:43:37.391Z,28.31
2022-08-22T10:46:17.201Z,27.43
2022-08-22T10:48:58.163Z,28.89
2022-08-22T10:51:44.687Z,28.03
2022-08-22T10:54:29.350Z,26.47
2022-08-22T10:57:08.158Z,25.52
2022-08-22T10:59:45.092Z,25.42
2022-08-22T11:02:27.509Z,24.51
2022-08-22T11:05:36.278Z,25.62
2022-08-22T11:08:34.811Z,24.63
2022-08-22T11:11:17.574Z,25.13
2022-08-22T11:14:41.777Z,24.85
2022-08-22T11:17:54.111Z,23.71
2022-08-22T11:21:04.526Z,23.23
2022-08-22T11:24:17.381Z,25.80
2022-08-22T11:27:39.568Z,25.16
2022-08-22T11:30:24.017Z,24.34
2022-08-22T11:32:59.587Z,26.73
2022-08-22T11:35:42.884Z,27.79
2022-08-22T11:38:33.045Z,26.68
2022-08-22T11:41:05.405Z,26.86
2022-08-22T11:43:44.277Z,26.36
2022-08-22T11:46:28.160Z,25.96
2022-08-22T11:49:13.717Z,26.81
2022-08-22T11:52:09.722Z,25.83
2022-08-22T11:55:38.434Z,26.90
2022-08-22T11:58:39.513Z,24.75
2022-08-22T12:01:38.459Z,24.61
2022-08-22T12:04:35.869Z,26.78
2022-08-22T12:07:31.235Z,26.40
2022-08-22T12:10:22.248Z,25.05
2022-08-22T12:13:36.774Z,23.81
2022-08-22T12:16:25.264Z,23.94
2022-08-22T12:20:05.767Z,24.43
2022-08-22T12:22:50.040Z,23.70
2022-08-22T12:25:26.326Z,23.22
2022-08-22T12:28:23.327Z,23.37
2022-08-22T12:31:16.283Z,22.54
2022-08-22T12:34:01.512Z,23.56
2022-08-22T12:36:53.091Z,25.99
2022-08-22T12:40:16.759Z,24.35
2022-08-22T12:42:59.542Z,24.97
2022-08-22T12:45:44.351Z,24.45
2022-08-22T12:48:47.710Z,24.16
2022-08-22T12:51:30.864Z,23.86
2022-08-22T12:54:36.122Z,23.65
2022-08-22T12:57:54.201Z,23.64
2022-08-22T13:00:35.705Z,22.55
2022-08-22T13:03:43.517Z,21.48
2022-08-22T13:06:35.251Z,21.29
2022-08-22T13:09:09.816Z,22.76
2022-08-22T13:11:41.492Z,23.75
2022-08-22T13:14:16.750Z,22.42
2022-08-22T13:16:51.849Z,22.38
2022-08-22T13:19:32.359Z,22.78
2022-08-22T13:22:09.781Z,23.21
2022-08-22T13:24:51.663Z,24.99
2022-08-22T13:27:27.111Z,23.82
2022-08-22T13:30:12.336Z,23.24
2022-08-22T13:32:48.634Z,22.61
2022-08-22T13:35:27.121Z,21.15
2022-08-22T13:38:12.337Z,21.58
2022-08-22T13:40:44.688Z,20.26
2022-08-22T13:43:23.872Z,21.21
2022-08-22T13:45:57.990Z,21.20
2022-08-22T13:49:00.829Z,20.02
2022-08-22T13:51:40.150Z,20.20
2022-08-22T13:54:10.793Z,21.32
2022-08-22T13:57:30.760Z,21.57
2022-08-22T14:00:13.204Z,22.23
2022-08-22T14:03:15.039Z,23.29
2022-08-22T14:05:51.271Z,22.13
2022-08-22T14:08:25.883Z,21.07
2022-08-22T14:11:08.314Z,21.22
2022-08-22T14:14:01.099Z,20.76
2022-08-22T14:16:37.195Z,21.33
2022-08-22T14:19:14.428Z,22.69
2022-08-22T14:21:53.387Z,21.36
2022-08-22T14:24:45.578Z,22.92
2022-08-22T14:27:57.602Z,22.07
2022-08-22T14:30:54.414Z,21.17
2022-08-22T14:33:35.664Z,20.06
2022-08-22T14:36:14.292Z,21.87
2022-08-22T14:39:11.797Z,23.15
2022-08-22T14:41:55.677Z,23.35
2022-08-22T14:44:44.027Z,21.77
2022-08-22T14:48:14.185Z,20.87
2022-08-22T14:50:43.367Z,20.03
2022-08-22T14:53:24.930Z,19.06
2022-08-22T14:56:15.639Z,18.26
2022-08-22T14:59:08.917Z,18.70
2022-08-22T15:02:01.424Z,20.41
2022-08-22T15:04:42.369Z,20.23
2022-08-22T15:07:10.605Z,22.59
2022-08-22T15:09:50.553Z,22.16
2022-08-22T15:12:30.788Z,22.63
2022-08-22T15:15:02.491Z,22.70
2022-08-22T15:17:54.767Z,23.22
2022-08-22T15:20:38.193Z,24.78
2022-08-22T15:23:23.013Z,24.96
2022-08-22T15:26:13.430Z,24.57
2022-08-22T15:28:53.091Z,24.65
2022-08-22T15:31:21.137Z,24.92
2022-08-22T15:33:49.750Z,23.73
2022-08-22T15:36:24.489Z,23.11
2022-08-22T15:39:18.365Z,23.39
2022-08-22T15:41:48.426Z,22.45
2022-08-22T15:44:32.233Z,22.01
2022-08-22T15:47:39.384Z,22.22
2022-08-22T15:50:27.208Z,21.84
2022-08-22T15:53:18.979Z,22.47
2022-08-22T15:56:11.367Z,23.69
2022-08-22T15:58:48.833Z,23.41
2022-08-22T16:01:24.951Z,23.59
2022-08-22T16:04:06.518Z,24.58
2022-08-22T16:07:18.693Z,24.44
2022-08-22T16:09:50.681Z,24.84
2022-08-22T16:12:47.744Z,25.27
2022-08-22T16:15:51.534Z,23.40
2022-08-22T16:18:35.567Z,23.83
2022-08-22T16:21:23.848Z,24.21
2022-08-22T16:23:50.843Z,25.36
2022-08-22T16:26:30.646Z,25.85
2022-08-22T16:29:17.530Z,25.68
2022-08-22T16:31:44.753Z,25.62
2022-08-22T16:34:20.564Z,25.76
2022-08-22T16:37:08.411Z,25.47
2022-08-22T16:40:14.539Z,26.88
2022-08-22T16:42:49.067Z,26.07
2022-08-22T16:45:24.632Z,26.16
2022-08-22T16:47:58.620Z,25.87
2022-08-22T16:50:33.527Z,25.67
2022-08-22T16:53:05.464Z,25.54
2022-08-22T16:55:34.300Z,24.89
2022-08-22T16:58:13.106Z,25.93
2022-08-22T17:01:07.534Z,25.16
2022-08-22T17:04:06.135Z,24.63
2022-08-22T17:07:18.831Z,23.73
2022-08-22T17:10:01.105Z,24.77
2022-08-22T17:13:06.485Z,23.90
2022-08-22T17:16:20.452Z,24.56
2022-08-22T17:19:39.308Z,27.21
2022-08-22T17:22:32.785Z,25.56
2022-08-22T17:25:50.816Z,25.97
2022-08-22T17:28:33.536Z,26.68
2022-08-22T17:31:12.985Z,28.61
2022-08-22T17:34:38.826Z,27.98
2022-08-22T17:37:31.832Z,28.41
2022-08-22T17:40:22.569Z,28.18
2022-08-22T17:43:09.906Z,28.34
2022-08-22T17:46:30.885Z,28.40
2022-08-22T17:49:29.858Z,28.92
2022-08-22T17:52:25.537Z,27.65
2022-08-22T17:55:18.549Z,28.67
2022-08-22T17:57:57.453Z,29.70
2022-08-22T18:00:33.148Z,29.53
2022-08-22T18:03:36.925Z,29.50
2022-08-22T18:06:16.272Z,29.94
2022-08-22T18:09:18.315Z,30.18
2022-08-22T18:11:52.076Z,30.65
2022-08-22T18:14:37.618Z,30.78
2022-08-22T18:17:34.763Z,30.85
2022-08-22T18:20:08.012Z,30.92
2022-08-22T18:23:21.825Z,30.61
2022-08-22T18:26:33.871Z,31.29
2022-08-22T18:29:18.612Z,31.51
2022-08-22T18:32:17.409Z,31.30
2022-08-22T18:35:10.108Z,31.06
2022-08-22T18:37:37.105Z,31.46
2022-08-22T18:40:23.250Z,30.33
2022-08-22T18:43:03.523Z,31.25
2022-08-22T18:45:48.490Z,32.40
2022-08-22T18:49:05.422Z,31.81
2022-08-22T18:51:38.280Z,33.21
2022-08-22T18:54:05.123Z,32.19
2022-08-22T18:56:31.601Z,32.54
2022-08-22T18:59:13.610Z,33.09
2022-08-22T19:01:56.466Z,32.07
2022-08-22T19:05:01.428Z,32.71
2022-08-22T19:08:08.589Z,33.20
2022-08-22T19:11:08.664Z,33.14
2022-08-22T19:14:22.417Z,32.92
2022-08-22T19:17:00.961Z,32.99
2022-08-22T19:20:08.045Z,33.46
2022-08-22T19:22:36.868Z,32.86
2022-08-22T19:25:27.172Z,33.10
2022-08-22T19:27:56.931Z,34.51
2022-08-22T19:30:44.189Z,33.41
2022-08-22T19:33:27.726Z,34.46
2022-08-22T19:36:11.949Z,34.70
2022-08-22T19:39:09.129Z,34.52
2022-08-22T19:41:54.041Z,35.70
2022-08-22T19:44:20.550Z,35.59
2022-08-22T19:47:18.868Z,36.45
2022-08-22T19:50:07.856Z,35.12
2022-08-22T19:53:31.035Z,36.24
2022-08-22T19:56:44.870Z,35.89
2022-08-22T19:59:50.925Z,35.47
2022-08-22T20:02:37.054Z,35.02
2022-08-22T20:05:20.603Z,35.47
2022-08-22T20:08:18.611Z,34.46
2022-08-22T20:11:13.684Z,36.33
2022-08-22T20:13:40.744Z,35.65
2022-08-22T20:16:24.193Z,35.77
2022-08-22T20:19:05.987Z,34.96
2022-08-22T20:21:39.298Z,35.83
2022-08-22T20:24:29.711Z,35.10
2022-08-22T20:27:13.249Z,35.61
2022-08-22T20:29:51.442Z,35.75
2022-08-22T20:32:21.420Z,35.32
2022-08-22T20:34:54.867Z,35.05
2022-08-22T20:37:45.530Z,35.59
2022-08-22T20:40:56.944Z,34.90
2022-08-22T20:43:31.072Z,35.85
2022-08-22T20:46:26.205Z,35.06
2022-08-22T20:48:55.787Z,34.94
2022-08-22T20:51:30.702Z,35.23
2022-08-22T20:54:02.072Z,35.20
2022-08-22T20:56:53.081Z,37.06
2022-08-22T20:59:27.405Z,35.40
2022-08-22T21:02:20.205Z,35.84
2022-08-22T21:04:52.924Z,35.46
2022-08-22T21:07:33.595Z,34.75
2022-08-22T21:10:45.384Z,35.19
2022-08-22T21:13:24.309Z,35.15
2022-08-22T21:15:58.015Z,36.61
2022-08-22T21:18:24.596Z,37.21
2022-08-22T21:20:51.308Z,36.33
2022-08-22T21:23:19.447Z,37.38
2022-08-22T21:26:02.319Z,36.66
2022-08-22T21:28:38.075Z,36.97
2022-08-22T21:31:16.499Z,35.66
2022-08-22T21:33:47.001Z,35.94
2022-08-22T21:36:20.491Z,37.38
2022-08-22T21:38:57.370Z,36.88
2022-08-22T21:41:42.103Z,37.17
2022-08-22T21:44:30.580Z,37.74
2022-08-22T21:47:19.360Z,37.86
2022-08-22T21:50:12.516Z,38.37
2022-08-22T21:52:44.185Z,39.57
2022-08-22T21:55:29.559Z,41.98
2022-08-22T21:58:34.903Z,38.09
2022-08-22T22:01:24.977Z,39.07
2022-08-22T22:03:52.078Z,38.86
2022-08-22T22:06:18.927Z,37.87
2022-08-22T22:08:45.544Z,38.74
2022-08-22T22:11:15.136Z,39.20
2022-08-22T22:13:42.676Z,39.65
2022-08-22T22:16:12.112Z,38.59
2022-08-22T22:18:40.475Z,39.86
2022-08-22T22:21:07.683Z,40.18
2022-08-22T22:23:34.341Z,39.23
2022-08-22T22:26:05.471Z,38.96
2022-08-22T22:28:37.988Z,39.10
2022-08-22T22:31:05.713Z,39.19
2022-08-22T22:33:40.018Z,39.96
2022-08-22T22:36:14.852Z,39.82
2022-08-22T22:38:41.926Z,39.52
2022-08-22T22:41:08.723Z,39.90
2022-08-22T22:43:35.501Z,39.69
2022-08-22T22:46:02.287Z,40.03
2022-08-22T22:48:29.260Z,40.25
2022-08-22T22:50:55.896Z,39.94
2022-08-22T22:53:33.630Z,39.54
2022-08-22T22:56:09.360Z,40.00
2022-08-22T22:58:37.327Z,40.16
2022-08-22T23:01:20.997Z,40.99
2022-08-22T23:03:52.117Z,40.52
2022-08-22T23:06:23.050Z,39.67
2022-08-22T23:08:51.107Z,39.38
2022-08-22T23:11:30.241Z,39.21
2022-08-22T23:13:57.372Z,39.27
2022-08-22T23:16:32.033Z,39.38
2022-08-22T23:19:09.219Z,39.95
2022-08-22T23:21:35.905Z,40.37
2022-08-22T23:24:02.724Z,40.64
2022-08-22T23:26:29.642Z,40.65
2022-08-22T23:28:57.249Z,42.58
2022-08-22T23:31:50.357Z,44.11
2022-08-22T23:34:24.141Z,43.50
2022-08-22T23:36:54.675Z,42.45
2022-08-22T23:39:24.809Z,40.92
2022-08-22T23:41:52.125Z,43.58
2022-08-22T23:44:22.680Z,42.45
2022-08-22T23:46:50.069Z,43.20
2022-08-22T23:49:17.731Z,43.35
2022-08-22T23:51:46.404Z,43.54
2022-08-22T23:54:13.730Z,43.20
2022-08-22T23:56:47.320Z,43.12
2022-08-22T23:59:18.636Z,44.00
